Time;durP1;ratioP1;P1;durP2;ratioP2;P2;SDS_P1;SDS_P2;PMS_P1;PMS_P2;Temp;Humidity;BMP_temperature;BMP_pressure;BME280_temperature;BME280_humidity;BME280_pressure;Samples;Min_cycle;Max_cycle;Signal;HPM_P1;HPM_P2
2021/12/14 00:02:29;;;;;;;12.30;4.07;;;;;8.10;102052.00;;;;5014051;28;20242;-73
2021/12/14 00:05:19;;;;;;;10.10;4.33;;;;;8.10;102046.00;;;;5008823;28;20264;-73
2021/12/14 00:08:07;;;;;;;8.27;4.10;;;;;8.00;102047.00;;;;5001093;28;20234;-72
2021/12/14 00:11:23;;;;;;;6.80;3.83;;;;;8.00;102045.00;;;;4998625;28;20233;-72
2021/12/14 00:14:27;;;;;;;8.63;4.10;;;;;8.00;102043.00;;;;5001350;28;20586;-72
2021/12/14 00:17:18;;;;;;;9.30;3.90;;;;;8.00;102030.00;;;;5002334;28;20394;-73
2021/12/14 00:20:12;;;;;;;11.80;4.40;;;;;8.00;102044.00;;;;5000577;28;20340;-74
2021/12/14 00:26:05;;;;;;;8.60;4.00;;;;;8.00;102065.00;;;;4979806;28;20229;-72
2021/12/14 00:28:52;;;;;;;8.03;4.00;;;;;8.00;102061.00;;;;4985487;28;20226;-73
2021/12/14 00:31:39;;;;;;;13.10;4.40;;;;;8.00;102066.00;;;;4982577;28;20361;-73
2021/12/14 00:34:36;;;;;;;8.10;4.17;;;;;8.00;102062.00;;;;4985252;28;20239;-72
2021/12/14 00:37:26;;;;;;;12.97;4.10;;;;;7.90;102051.00;;;;4986276;28;20235;-73
2021/12/14 00:40:24;;;;;;;10.50;4.37;;;;;8.00;102055.00;;;;4973415;28;20278;-73
2021/12/14 00:43:13;;;;;;;7.27;4.10;;;;;8.00;102037.00;;;;4979851;28;20233;-71
2021/12/14 00:45:59;;;;;;;8.17;3.93;;;;;8.00;102034.00;;;;4995462;28;20993;-73
2021/12/14 00:48:46;;;;;;;11.97;4.47;;;;;8.00;102048.00;;;;4998149;28;20290;-73
2021/12/14 00:51:34;;;;;;;12.93;5.00;;;;;8.00;102043.00;;;;4996655;28;20239;-73
2021/12/14 00:54:21;;;;;;;10.27;4.30;;;;;8.00;102043.00;;;;5005600;28;20241;-71
2021/12/14 00:57:10;;;;;;;8.07;4.73;;;;;8.00;102041.00;;;;5003273;28;20765;-73
2021/12/14 00:59:57;;;;;;;6.47;4.40;;;;;8.10;102031.00;;;;4985380;28;20231;-71
2021/12/14 01:02:45;;;;;;;8.63;4.57;;;;;8.10;102026.00;;;;4984816;28;20605;-72
2021/12/14 01:05:35;;;;;;;8.33;4.90;;;;;8.20;102037.00;;;;5013275;28;20242;-73
2021/12/14 01:08:27;;;;;;;8.27;4.87;;;;;8.10;102045.00;;;;5017080;28;20230;-72
2021/12/14 01:11:18;;;;;;;7.57;4.20;;;;;8.10;102045.00;;;;5011424;28;20229;-72
2021/12/14 01:14:10;;;;;;;7.07;4.40;;;;;8.10;102053.00;;;;5008576;28;20346;-73
2021/12/14 01:17:10;;;;;;;9.50;4.37;;;;;8.10;102046.00;;;;5008213;28;20292;-72
2021/12/14 01:20:00;;;;;;;8.63;4.33;;;;;8.10;102030.00;;;;4986093;28;20234;-73
2021/12/14 01:22:58;;;;;;;6.33;4.33;;;;;8.00;102038.00;;;;5008606;28;20246;-72
2021/12/14 01:25:47;;;;;;;6.70;4.00;;;;;8.00;102033.00;;;;4988741;28;20222;-74
2021/12/14 01:28:35;;;;;;;11.33;4.70;;;;;8.10;102039.00;;;;5018202;28;20628;-71
2021/12/14 01:31:28;;;;;;;6.70;4.10;;;;;8.00;102045.00;;;;5014148;28;20254;-72
2021/12/14 01:34:19;;;;;;;14.63;4.13;;;;;8.00;102053.00;;;;5019311;28;20237;-72
2021/12/14 01:37:09;;;;;;;12.40;4.17;;;;;8.00;102062.00;;;;5000756;28;20307;-70
2021/12/14 01:40:02;;;;;;;12.57;4.23;;;;;8.00;102068.00;;;;5010245;28;20233;-72
2021/12/14 01:42:49;;;;;;;12.50;4.20;;;;;8.00;102065.00;;;;5010397;28;20279;-71
2021/12/14 01:45:35;;;;;;;6.53;3.73;;;;;8.00;102062.00;;;;5018379;28;20483;-70
2021/12/14 01:48:23;;;;;;;6.40;3.50;;;;;8.00;102052.00;;;;5019366;28;20233;-71
2021/12/14 01:51:12;;;;;;;5.97;3.77;;;;;8.00;102073.00;;;;5016387;28;20803;-74
2021/12/14 01:53:59;;;;;;;5.87;4.13;;;;;8.00;102059.00;;;;4988034;28;20375;-73
2021/12/14 01:56:45;;;;;;;6.53;3.93;;;;;7.90;102067.00;;;;5014395;28;20230;-72
2021/12/14 01:59:36;;;;;;;6.90;4.40;;;;;8.00;102057.00;;;;5005014;28;20234;-70
2021/12/14 02:02:30;;;;;;;7.10;4.10;;;;;8.00;102045.00;;;;5005669;28;20246;-73
2021/12/14 02:05:21;;;;;;;6.47;4.33;;;;;8.00;102038.00;;;;5013470;28;20225;-72
2021/12/14 02:08:17;;;;;;;10.57;5.47;;;;;8.20;102026.00;;;;4988781;28;20318;-73
2021/12/14 02:11:06;;;;;;;7.87;4.10;;;;;8.20;102026.00;;;;4984163;28;20215;-73
2021/12/14 02:13:55;;;;;;;8.73;4.73;;;;;8.20;102012.00;;;;4987359;28;20700;-73
2021/12/14 02:16:43;;;;;;;6.37;4.43;;;;;8.10;102019.00;;;;4992031;28;20235;-73
2021/12/14 02:19:31;;;;;;;9.23;4.33;;;;;8.10;102037.00;;;;4981955;28;20285;-74
2021/12/14 02:22:19;;;;;;;9.40;5.00;;;;;8.30;102027.00;;;;4987848;28;20232;-73
2021/12/14 02:25:07;;;;;;;7.60;4.17;;;;;8.20;102003.00;;;;4975072;28;20318;-73
2021/12/14 02:27:55;;;;;;;8.77;4.70;;;;;8.10;101985.00;;;;4977110;28;20226;-72
2021/12/14 02:30:43;;;;;;;10.40;5.63;;;;;8.30;101971.00;;;;4978750;28;20223;-73
2021/12/14 02:33:33;;;;;;;12.37;6.13;;;;;8.40;101958.00;;;;4980597;28;20271;-71
2021/12/14 02:36:22;;;;;;;9.00;5.77;;;;;8.40;101967.00;;;;4979215;28;20235;-73
2021/12/14 02:39:24;;;;;;;9.60;5.70;;;;;8.40;101958.00;;;;4985471;28;20242;-74
2021/12/14 02:42:14;;;;;;;7.97;5.10;;;;;8.40;101964.00;;;;4988009;28;20227;-72
2021/12/14 02:45:00;;;;;;;9.63;5.40;;;;;8.50;101974.00;;;;4984416;28;20238;-71
2021/12/14 02:47:47;;;;;;;7.20;4.50;;;;;8.40;101972.00;;;;4984995;28;20230;-72
2021/12/14 02:50:33;;;;;;;11.10;4.73;;;;;8.30;101977.00;;;;5016755;28;20235;-72
2021/12/14 02:53:20;;;;;;;10.40;5.50;;;;;8.50;101991.00;;;;5013895;28;20245;-74
2021/12/14 02:56:17;;;;;;;9.87;5.00;;;;;8.40;101986.00;;;;5023282;28;20733;-74
2021/12/14 02:59:09;;;;;;;9.07;4.87;;;;;8.40;101976.00;;;;4993292;28;20225;-74
2021/12/14 03:01:58;;;;;;;11.37;4.93;;;;;8.30;101972.00;;;;4981605;28;20235;-74
2021/12/14 03:04:47;;;;;;;8.77;5.33;;;;;8.40;101944.00;;;;4987705;28;20246;-73
2021/12/14 03:07:43;;;;;;;9.07;5.57;;;;;8.40;101957.00;;;;5017397;28;20360;-73
2021/12/14 03:10:49;;;;;;;9.13;5.60;;;;;8.30;101959.00;;;;5005125;28;20946;-71
2021/12/14 03:13:40;;;;;;;9.67;5.23;;;;;8.40;101978.00;;;;4987353;28;20830;-74
2021/12/14 03:16:30;;;;;;;8.47;5.70;;;;;8.40;101980.00;;;;5003504;28;20261;-76
2021/12/14 03:19:16;;;;;;;7.77;5.27;;;;;8.40;101973.00;;;;5006824;28;20754;-72
2021/12/14 03:22:21;;;;;;;8.13;5.23;;;;;8.40;101972.00;;;;5003233;28;20238;-72
2021/12/14 03:25:08;;;;;;;8.63;5.17;;;;;8.50;101966.00;;;;5001520;28;20237;-74
2021/12/14 03:27:58;;;;;;;9.03;5.77;;;;;8.50;101961.00;;;;5003809;28;20226;-71
2021/12/14 03:31:01;;;;;;;12.27;5.67;;;;;8.60;101954.00;;;;5002446;28;20229;-73
2021/12/14 03:33:53;;;;;;;8.33;5.87;;;;;8.50;101968.00;;;;4991021;28;20230;-72
2021/12/14 03:36:42;;;;;;;7.07;4.97;;;;;8.40;101991.00;;;;4980153;28;20305;-72
2021/12/14 03:39:31;;;;;;;9.60;5.37;;;;;8.30;101983.00;;;;4988127;28;20689;-73
2021/12/14 03:42:23;;;;;;;17.17;5.97;;;;;8.40;101987.00;;;;4986324;28;20321;-73
2021/12/14 03:45:13;;;;;;;9.57;5.93;;;;;8.30;101989.00;;;;4996936;28;20331;-74
2021/12/14 03:48:03;;;;;;;10.73;6.50;;;;;8.40;101997.00;;;;4999530;28;20239;-74
2021/12/14 03:50:50;;;;;;;13.53;6.73;;;;;8.40;101995.00;;;;4996550;28;20226;-74
2021/12/14 03:53:37;;;;;;;9.50;6.50;;;;;8.40;101990.00;;;;4995505;28;20733;-73
2021/12/14 03:56:25;;;;;;;13.27;6.27;;;;;8.30;101987.00;;;;5005969;28;20768;-74
2021/12/14 03:59:11;;;;;;;11.00;6.90;;;;;8.30;101987.00;;;;4986438;28;20826;-74
2021/12/14 04:02:01;;;;;;;11.63;6.87;;;;;8.30;101985.00;;;;4985974;28;20226;-74
2021/12/14 04:05:01;;;;;;;11.70;6.60;;;;;8.30;101987.00;;;;4992863;28;20386;-72
2021/12/14 04:07:49;;;;;;;10.37;6.93;;;;;8.50;101987.00;;;;4977619;28;20250;-73
2021/12/14 04:10:38;;;;;;;11.33;7.57;;;;;8.30;101979.00;;;;4996982;28;20263;-72
2021/12/14 04:13:28;;;;;;;11.33;6.90;;;;;8.40;101981.00;;;;5005815;28;20238;-73
2021/12/14 04:16:17;;;;;;;12.63;6.37;;;;;8.30;101969.00;;;;4988933;28;20242;-73
2021/12/14 04:19:05;;;;;;;9.03;6.57;;;;;8.30;101985.00;;;;4986414;28;20308;-74
2021/12/14 04:21:57;;;;;;;12.53;7.43;;;;;8.30;102003.00;;;;4975896;28;20230;-72
2021/12/14 04:24:46;;;;;;;11.13;7.30;;;;;8.30;102007.00;;;;4998848;28;20891;-71
2021/12/14 04:27:34;;;;;;;10.47;7.87;;;;;8.30;102003.00;;;;4993300;28;20229;-74
2021/12/14 04:30:23;;;;;;;11.27;7.63;;;;;8.40;102003.00;;;;5009307;28;20247;-72
2021/12/14 04:33:13;;;;;;;12.03;7.70;;;;;8.40;102011.00;;;;4986968;28;20238;-74
2021/12/14 04:36:04;;;;;;;11.80;7.23;;;;;8.40;101998.00;;;;5000590;28;20781;-71
2021/12/14 04:38:56;;;;;;;11.30;7.33;;;;;8.40;101994.00;;;;4985488;28;20285;-72
2021/12/14 04:54:03;;;;;;;13.20;7.97;;;;;8.30;102004.00;;;;4996190;28;20234;-72
2021/12/14 04:56:50;;;;;;;15.53;8.30;;;;;8.30;101992.00;;;;4976354;28;20235;-73
2021/12/14 04:59:37;;;;;;;12.97;8.00;;;;;8.30;101990.00;;;;4987453;28;20272;-73
2021/12/14 05:02:28;;;;;;;13.23;8.07;;;;;8.40;101998.00;;;;5009838;28;20524;-73
2021/12/14 05:05:19;;;;;;;16.27;8.57;;;;;8.30;102006.00;;;;5021250;28;20241;-73
2021/12/14 05:11:14;;;;;;;16.20;9.30;;;;;8.30;101995.00;;;;4996418;28;20342;-73
2021/12/14 05:14:05;;;;;;;17.80;9.50;;;;;8.50;102001.00;;;;5002348;28;20230;-71
2021/12/14 05:16:54;;;;;;;17.47;9.73;;;;;8.40;101999.00;;;;5001465;28;20238;-74
2021/12/14 05:19:50;;;;;;;17.90;10.07;;;;;8.30;101988.00;;;;4996936;28;20237;-74
2021/12/14 05:22:41;;;;;;;19.60;10.10;;;;;8.30;101987.00;;;;5002473;28;20330;-74
2021/12/14 05:25:29;;;;;;;20.23;10.40;;;;;8.30;101979.00;;;;4994835;28;20645;-74
2021/12/14 05:28:19;;;;;;;19.40;10.67;;;;;8.30;101992.00;;;;4993948;28;20295;-74
2021/12/14 05:31:05;;;;;;;21.33;11.07;;;;;8.30;101988.00;;;;4990714;28;20329;-74
2021/12/14 05:33:52;;;;;;;21.47;10.73;;;;;8.40;101996.00;;;;4997790;28;20234;-74
2021/12/14 05:36:40;;;;;;;19.57;10.90;;;;;8.40;101990.00;;;;5007776;28;20241;-73
2021/12/14 05:39:46;;;;;;;25.53;11.60;;;;;8.30;101989.00;;;;5010855;28;20376;-74
2021/12/14 05:45:43;;;;;;;25.70;12.17;;;;;8.40;101977.00;;;;4993222;28;20233;-74
2021/12/14 05:48:33;;;;;;;21.27;11.50;;;;;8.30;101983.00;;;;4994811;28;20227;-73
2021/12/14 05:51:19;;;;;;;19.50;10.90;;;;;8.30;101977.00;;;;5004112;28;20285;-73
2021/12/14 05:54:05;;;;;;;21.83;11.63;;;;;8.30;101987.00;;;;5003822;28;20245;-74
2021/12/14 05:56:53;;;;;;;24.87;11.90;;;;;8.30;101984.00;;;;5000610;28;20234;-71
2021/12/14 05:59:40;;;;;;;25.87;11.87;;;;;8.40;101983.00;;;;4987739;28;20238;-73
2021/12/14 06:02:27;;;;;;;22.57;11.73;;;;;8.30;101983.00;;;;5011419;28;20622;-74
2021/12/14 06:05:18;;;;;;;25.83;12.70;;;;;8.20;101998.00;;;;4989017;28;20359;-76
2021/12/14 06:08:05;;;;;;;25.57;11.77;;;;;8.30;101986.00;;;;5003548;28;20274;-73
2021/12/14 06:10:52;;;;;;;23.10;11.03;;;;;8.30;102000.00;;;;5001413;28;20280;-75
2021/12/14 06:13:41;;;;;;;22.77;10.63;;;;;8.20;101991.00;;;;5010006;28;20237;-75
2021/12/14 06:16:31;;;;;;;22.33;10.60;;;;;8.30;101984.00;;;;5012776;28;20245;-74
2021/12/14 06:19:22;;;;;;;26.10;12.03;;;;;8.30;101986.00;;;;5017558;28;20233;-74
2021/12/14 06:22:11;;;;;;;22.00;11.13;;;;;8.20;101986.00;;;;5011271;28;20692;-75
2021/12/14 06:25:00;;;;;;;22.83;11.67;;;;;8.30;101986.00;;;;5020596;28;20752;-73
2021/12/14 06:27:47;;;;;;;25.07;11.37;;;;;8.30;101983.00;;;;5000327;28;20303;-73
2021/12/14 06:30:41;;;;;;;23.10;11.47;;;;;8.20;101991.00;;;;5010096;28;20246;-75
2021/12/14 06:33:29;;;;;;;25.87;12.17;;;;;8.30;101996.00;;;;5012596;28;20237;-73
2021/12/14 06:36:44;;;;;;;24.97;12.00;;;;;8.30;102006.00;;;;5008054;28;20230;-72
2021/12/14 06:39:32;;;;;;;23.90;11.87;;;;;8.30;102002.00;;;;5014438;28;20230;-73
2021/12/14 06:42:18;;;;;;;31.07;12.67;;;;;8.30;102017.00;;;;5003161;28;20756;-74
2021/12/14 06:45:11;;;;;;;26.93;12.17;;;;;8.20;102023.00;;;;5011179;28;20292;-73
2021/12/14 06:48:04;;;;;;;23.53;11.03;;;;;8.20;102031.00;;;;5016150;28;20651;-73
2021/12/14 06:50:56;;;;;;;23.23;11.43;;;;;8.30;102029.00;;;;5000122;28;20242;-72
2021/12/14 06:53:49;;;;;;;25.60;11.80;;;;;8.50;102036.00;;;;4986551;28;20242;-72
2021/12/14 06:56:36;;;;;;;25.10;11.83;;;;;8.40;102023.00;;;;5012420;28;20733;-71
2021/12/14 06:59:38;;;;;;;29.90;11.83;;;;;8.30;102019.00;;;;5017273;28;20252;-73
2021/12/14 07:02:26;;;;;;;22.83;11.20;;;;;8.30;102035.00;;;;5012222;28;20328;-72
2021/12/14 07:05:18;;;;;;;29.10;13.03;;;;;8.30;102017.00;;;;4990154;28;20246;-73
2021/12/14 07:08:09;;;;;;;25.37;12.23;;;;;8.30;102027.00;;;;5006551;28;20269;-73
2021/12/14 07:10:57;;;;;;;27.10;12.27;;;;;8.30;102032.00;;;;5005435;28;20320;-73
2021/12/14 07:13:44;;;;;;;27.17;12.20;;;;;8.30;102027.00;;;;5005560;28;20283;-73
2021/12/14 07:16:38;;;;;;;28.33;12.50;;;;;8.40;102039.00;;;;4992311;28;20813;-73
2021/12/14 07:19:41;;;;;;;26.27;11.87;;;;;8.30;102043.00;;;;5017778;28;20241;-72
2021/12/14 07:22:40;;;;;;;23.87;11.50;;;;;8.20;102048.00;;;;5008326;28;20262;-71
2021/12/14 07:25:29;;;;;;;23.97;11.53;;;;;8.20;102063.00;;;;4999094;28;20334;-72
2021/12/14 07:28:18;;;;;;;25.87;12.00;;;;;8.20;102065.00;;;;5011109;28;20311;-71
2021/12/14 07:31:13;;;;;;;25.83;11.20;;;;;8.40;102075.00;;;;4995670;28;20289;-71
2021/12/14 07:34:00;;;;;;;28.00;11.57;;;;;8.30;102064.00;;;;5006804;28;20231;-70
2021/12/14 07:36:47;;;;;;;28.43;12.07;;;;;8.20;102084.00;;;;4990116;28;20311;-72
2021/12/14 07:39:33;;;;;;;26.93;11.93;;;;;8.20;102083.00;;;;5004971;28;20246;-71
2021/12/14 07:42:19;;;;;;;23.53;11.20;;;;;8.30;102078.00;;;;4996459;28;20233;-72
2021/12/14 07:45:08;;;;;;;29.00;12.63;;;;;8.30;102082.00;;;;5009541;28;20732;-70
2021/12/14 07:47:54;;;;;;;28.67;12.53;;;;;8.30;102086.00;;;;4979089;28;20235;-72
2021/12/14 07:50:47;;;;;;;28.80;12.13;;;;;8.40;102086.00;;;;4983762;28;20239;-73
2021/12/14 07:53:37;;;;;;;28.47;12.40;;;;;8.30;102086.00;;;;5021021;28;20237;-72
2021/12/14 07:56:28;;;;;;;26.90;12.47;;;;;8.20;102080.00;;;;4991330;28;20231;-71
2021/12/14 07:59:22;;;;;;;25.33;12.07;;;;;8.40;102113.00;;;;5000544;28;20391;-73
2021/12/14 08:02:14;;;;;;;27.37;11.47;;;;;8.30;102105.00;;;;5000949;28;20759;-71
2021/12/14 08:05:12;;;;;;;24.50;11.60;;;;;8.30;102118.00;;;;4992543;28;20702;-71
2021/12/14 08:08:03;;;;;;;29.63;12.90;;;;;8.30;102116.00;;;;4990465;28;20240;-72
2021/12/14 08:11:08;;;;;;;24.30;11.13;;;;;8.30;102111.00;;;;4992179;28;20249;-74
2021/12/14 08:13:56;;;;;;;25.57;11.20;;;;;8.30;102121.00;;;;5008228;28;20228;-72
2021/12/14 08:16:45;;;;;;;31.50;13.10;;;;;8.40;102107.00;;;;5018191;28;20224;-74
2021/12/14 08:19:36;;;;;;;26.77;11.53;;;;;8.50;102108.00;;;;5023454;28;20257;-74
2021/12/14 08:22:31;;;;;;;26.53;12.07;;;;;8.50;102098.00;;;;5011254;28;20230;-73
2021/12/14 08:25:25;;;;;;;23.87;11.13;;;;;8.50;102080.00;;;;4994381;28;20238;-72
2021/12/14 08:28:14;;;;;;;29.30;12.53;;;;;8.50;102110.00;;;;5010223;28;20604;-73
2021/12/14 08:31:23;;;;;;;31.67;12.60;;;;;8.50;102105.00;;;;5012236;28;20320;-73
2021/12/14 08:34:13;;;;;;;26.73;11.87;;;;;8.50;102097.00;;;;5006279;28;20780;-74
2021/12/14 08:37:06;;;;;;;24.60;11.47;;;;;8.50;102098.00;;;;5003244;28;20303;-71
2021/12/14 08:40:02;;;;;;;26.80;11.77;;;;;8.70;102099.00;;;;5004850;28;20747;-73
2021/12/14 08:43:02;;;;;;;25.67;12.23;;;;;8.60;102091.00;;;;5003570;28;20281;-74
2021/12/14 08:45:50;;;;;;;29.00;12.60;;;;;8.60;102101.00;;;;5011078;28;20232;-73
2021/12/14 08:48:41;;;;;;;27.30;12.40;;;;;8.40;102107.00;;;;5020346;28;20404;-73
2021/12/14 08:51:30;;;;;;;30.13;12.30;;;;;8.50;102100.00;;;;5013766;28;20353;-73
2021/12/14 08:54:22;;;;;;;24.07;11.47;;;;;8.50;102111.00;;;;5016779;28;20234;-71
2021/12/14 08:57:13;;;;;;;25.70;12.13;;;;;8.50;102122.00;;;;4989461;28;20705;-71
2021/12/14 09:00:06;;;;;;;28.93;12.37;;;;;8.50;102116.00;;;;5012073;28;20296;-71
2021/12/14 09:02:58;;;;;;;25.20;12.37;;;;;8.50;102104.00;;;;5002990;28;20234;-69
2021/12/14 09:05:48;;;;;;;34.47;13.43;;;;;8.50;102107.00;;;;5002894;28;20237;-69
2021/12/14 09:08:36;;;;;;;27.87;12.70;;;;;8.60;102102.00;;;;5000950;28;20311;-73
2021/12/14 09:11:27;;;;;;;29.37;12.77;;;;;8.60;102117.00;;;;4991674;28;20224;-72
2021/12/14 09:14:17;;;;;;;31.37;12.87;;;;;8.60;102114.00;;;;5001531;28;20335;-73
2021/12/14 09:17:07;;;;;;;29.10;12.93;;;;;8.60;102112.00;;;;4993432;28;20250;-69
2021/12/14 09:19:56;;;;;;;30.93;13.63;;;;;8.60;102107.00;;;;4998123;28;20370;-72
2021/12/14 09:22:47;;;;;;;32.33;12.83;;;;;8.60;102107.00;;;;5000474;28;20308;-74
2021/12/14 09:25:34;;;;;;;34.90;13.03;;;;;8.60;102114.00;;;;5007480;28;20239;-72
2021/12/14 09:28:22;;;;;;;26.33;12.10;;;;;8.70;102134.00;;;;5007325;28;20293;-74
2021/12/14 09:31:17;;;;;;;34.13;14.83;;;;;8.70;102132.00;;;;5004321;28;20226;-73
2021/12/14 09:34:05;;;;;;;31.97;13.40;;;;;8.80;102142.00;;;;5006434;28;20255;-73
2021/12/14 09:36:52;;;;;;;28.00;12.80;;;;;8.70;102120.00;;;;4984933;28;20232;-74
2021/12/14 09:39:41;;;;;;;31.77;13.17;;;;;8.80;102138.00;;;;4986617;28;20311;-74
2021/12/14 09:42:32;;;;;;;30.57;13.60;;;;;8.80;102139.00;;;;5016379;28;20238;-73
2021/12/14 09:45:27;;;;;;;25.77;11.63;;;;;8.90;102147.00;;;;4996045;28;20226;-72
2021/12/14 09:48:16;;;;;;;29.77;12.33;;;;;8.90;102142.00;;;;4988575;28;20663;-73
2021/12/14 09:51:07;;;;;;;31.30;13.37;;;;;9.00;102139.00;;;;5000661;28;20373;-72
2021/12/14 09:54:00;;;;;;;32.43;13.77;;;;;8.80;102146.00;;;;5000444;28;20249;-73
2021/12/14 09:56:51;;;;;;;33.57;13.87;;;;;8.90;102145.00;;;;5002302;28;20372;-73
2021/12/14 09:59:38;;;;;;;31.53;13.43;;;;;8.80;102144.00;;;;5013795;28;20235;-73
2021/12/14 10:02:29;;;;;;;31.10;12.90;;;;;8.90;102131.00;;;;5017705;28;20233;-72
2021/12/14 10:05:21;;;;;;;31.93;13.77;;;;;9.00;102134.00;;;;5013758;28;20226;-73
2021/12/14 10:08:15;;;;;;;29.07;13.00;;;;;9.10;102140.00;;;;5002843;28;20233;-75
2021/12/14 10:11:08;;;;;;;31.63;12.90;;;;;9.10;102132.00;;;;5003460;28;20264;-74
2021/12/14 10:13:57;;;;;;;30.47;13.17;;;;;9.20;102118.00;;;;5007656;28;20855;-75
2021/12/14 10:16:44;;;;;;;29.53;12.73;;;;;9.20;102122.00;;;;5002528;28;20233;-74
2021/12/14 10:19:33;;;;;;;30.10;12.47;;;;;9.20;102120.00;;;;5016744;28;20237;-73
2021/12/14 10:22:24;;;;;;;29.30;12.93;;;;;9.10;102125.00;;;;5010919;28;20225;-75
2021/12/14 10:25:14;;;;;;;25.70;11.57;;;;;9.20;102126.00;;;;4986154;28;20261;-74
2021/12/14 10:28:01;;;;;;;28.93;12.97;;;;;9.30;102136.00;;;;5000754;28;20234;-73
2021/12/14 10:30:54;;;;;;;33.10;13.43;;;;;9.20;102125.00;;;;4996415;28;20715;-71
2021/12/14 10:33:42;;;;;;;28.43;11.90;;;;;9.20;102121.00;;;;5004620;28;20234;-73
2021/12/14 10:36:35;;;;;;;32.23;13.73;;;;;9.20;102117.00;;;;4993733;28;20604;-74
2021/12/14 10:39:37;;;;;;;29.67;12.97;;;;;9.20;102120.00;;;;4997250;28;20242;-74
2021/12/14 10:43:04;;;;;;;27.07;12.10;;;;;9.20;102118.00;;;;4989031;28;20230;-73
2021/12/14 10:45:53;;;;;;;28.07;11.73;;;;;9.30;102116.00;;;;4996573;28;20230;-73
2021/12/14 10:48:43;;;;;;;30.57;13.17;;;;;9.40;102113.00;;;;5005332;28;20242;-74
2021/12/14 10:51:36;;;;;;;29.43;13.27;;;;;9.40;102111.00;;;;5005065;28;20234;-71
2021/12/14 10:54:22;;;;;;;30.17;13.27;;;;;9.30;102110.00;;;;5002200;28;20239;-73
2021/12/14 10:57:13;;;;;;;31.97;14.03;;;;;9.50;102118.00;;;;4993278;28;20833;-74
2021/12/14 11:00:00;;;;;;;30.57;14.13;;;;;9.50;102114.00;;;;4996763;28;20695;-73
2021/12/14 11:02:47;;;;;;;32.30;13.13;;;;;9.50;102101.00;;;;5001710;28;20367;-73
2021/12/14 11:05:36;;;;;;;30.47;13.00;;;;;9.50;102111.00;;;;4996804;28;20223;-73
2021/12/14 11:08:42;;;;;;;30.37;13.40;;;;;9.50;102103.00;;;;4994110;28;20239;-75
2021/12/14 11:11:35;;;;;;;27.37;12.90;;;;;9.50;102097.00;;;;5005902;28;20281;-74
2021/12/14 11:14:24;;;;;;;27.67;13.37;;;;;9.60;102092.00;;;;4998439;28;20277;-74
2021/12/14 11:20:22;;;;;;;27.80;12.50;;;;;9.50;102089.00;;;;5002288;28;20338;-76
2021/12/14 11:23:13;;;;;;;27.63;12.90;;;;;9.70;102101.00;;;;5002433;28;20329;-77
2021/12/14 11:26:05;;;;;;;33.63;13.30;;;;;9.70;102106.00;;;;5000413;28;20231;-75
2021/12/14 11:28:54;;;;;;;28.77;12.93;;;;;9.60;102098.00;;;;4993523;28;20235;-74
2021/12/14 11:31:46;;;;;;;30.23;13.07;;;;;9.60;102101.00;;;;4999241;28;20576;-74
2021/12/14 11:34:36;;;;;;;29.17;13.27;;;;;9.50;102105.00;;;;4992143;28;20233;-72
2021/12/14 11:37:32;;;;;;;28.20;13.33;;;;;9.50;102059.00;;;;4999545;28;20241;-72
2021/12/14 11:40:21;;;;;;;30.13;13.50;;;;;9.60;102088.00;;;;5000173;28;20243;-70
2021/12/14 11:43:15;;;;;;;37.67;16.53;;;;;9.70;102081.00;;;;4992228;28;20225;-70
2021/12/14 11:46:07;;;;;;;43.80;17.60;;;;;9.80;102078.00;;;;4996348;28;20273;-70
2021/12/14 11:48:57;;;;;;;34.97;15.83;;;;;9.90;102100.00;;;;5001055;28;20244;-70
2021/12/14 11:51:44;;;;;;;32.80;16.43;;;;;9.70;102087.00;;;;4982574;28;20247;-70
2021/12/14 11:54:40;;;;;;;57.00;19.83;;;;;9.80;102092.00;;;;4989835;28;20798;-72
2021/12/14 11:57:31;;;;;;;160.23;31.07;;;;;9.70;102088.00;;;;4998488;28;20369;-71
2021/12/14 12:00:23;;;;;;;73.87;21.47;;;;;9.70;102088.00;;;;5009670;28;20234;-69
2021/12/14 12:03:22;;;;;;;39.40;17.17;;;;;9.80;102093.00;;;;4974842;28;20295;-72
2021/12/14 12:09:32;;;;;;;37.90;16.80;;;;;9.60;102095.00;;;;5000158;28;20264;-68
2021/12/14 12:12:23;;;;;;;140.57;36.40;;;;;9.60;102092.00;;;;5019097;28;20239;-72
2021/12/14 12:15:14;;;;;;;32.87;15.60;;;;;9.70;102085.00;;;;5010465;28;20307;-71
2021/12/14 12:18:02;;;;;;;34.27;15.70;;;;;9.60;102086.00;;;;4995741;28;20624;-73
2021/12/14 12:20:50;;;;;;;39.97;17.90;;;;;9.70;102082.00;;;;5010800;28;20235;-71
2021/12/14 12:23:36;;;;;;;34.50;15.00;;;;;9.80;102086.00;;;;5015795;28;20239;-71
2021/12/14 12:26:25;;;;;;;36.13;16.53;;;;;9.80;102048.00;;;;4989253;28;20243;-70
2021/12/14 12:29:16;;;;;;;31.87;15.30;;;;;9.60;102099.00;;;;4979233;28;20248;-71
2021/12/14 12:32:08;;;;;;;35.63;16.50;;;;;9.60;102091.00;;;;4993858;28;20709;-71
2021/12/14 12:34:56;;;;;;;33.17;15.93;;;;;9.60;102093.00;;;;4992872;28;20230;-71
2021/12/14 12:37:44;;;;;;;35.00;16.03;;;;;9.70;102092.00;;;;4990420;28;20254;-69
2021/12/14 12:40:46;;;;;;;33.87;16.23;;;;;9.60;102089.00;;;;4992567;28;20362;-70
2021/12/14 12:43:36;;;;;;;33.70;15.27;;;;;9.60;102089.00;;;;4994054;28;20323;-69
2021/12/14 12:46:25;;;;;;;33.73;15.70;;;;;9.70;102083.00;;;;5005622;28;20229;-69
2021/12/14 12:49:18;;;;;;;31.80;15.17;;;;;9.70;102077.00;;;;5016177;28;20613;-70
2021/12/14 12:52:12;;;;;;;33.20;15.37;;;;;9.70;102085.00;;;;5009772;28;20277;-73
2021/12/14 12:55:02;;;;;;;36.10;15.93;;;;;9.80;102085.00;;;;4986751;28;20310;-74
2021/12/14 12:57:55;;;;;;;36.07;15.73;;;;;9.80;102071.00;;;;4993338;28;20226;-75
2021/12/14 13:00:43;;;;;;;32.77;14.47;;;;;9.80;102086.00;;;;4996772;28;20274;-75
2021/12/14 13:03:50;;;;;;;35.77;15.27;;;;;9.80;102089.00;;;;4998586;28;20299;-73
2021/12/14 13:06:37;;;;;;;35.80;16.03;;;;;9.70;102081.00;;;;4999144;28;20314;-74
2021/12/14 13:09:24;;;;;;;33.07;15.47;;;;;9.90;102085.00;;;;4996768;28;20775;-75
2021/12/14 13:12:10;;;;;;;34.30;15.37;;;;;9.90;102074.00;;;;4994163;28;20253;-73
2021/12/14 13:14:57;;;;;;;30.63;14.87;;;;;9.80;102085.00;;;;4991279;28;20236;-73
2021/12/14 13:17:43;;;;;;;30.87;14.77;;;;;9.80;102073.00;;;;4999711;28;20300;-72
2021/12/14 13:20:37;;;;;;;33.43;14.90;;;;;9.80;102070.00;;;;5007348;28;20289;-72
2021/12/14 13:23:39;;;;;;;31.70;15.53;;;;;9.80;102078.00;;;;5015216;28;20361;-73
2021/12/14 13:26:42;;;;;;;29.77;13.93;;;;;9.90;102065.00;;;;5021516;28;20237;-74
2021/12/14 13:29:44;;;;;;;31.47;15.10;;;;;9.80;102067.00;;;;5009582;28;20255;-75
2021/12/14 13:32:32;;;;;;;33.10;14.83;;;;;9.80;102070.00;;;;4993138;28;20292;-72
2021/12/14 13:35:24;;;;;;;29.90;14.63;;;;;9.80;102069.00;;;;5015842;28;20232;-73
2021/12/14 13:38:10;;;;;;;30.30;14.13;;;;;9.80;102072.00;;;;5000873;28;22310;-72
2021/12/14 13:41:00;;;;;;;32.07;14.30;;;;;9.80;102066.00;;;;4994376;28;20732;-72
2021/12/14 13:43:47;;;;;;;29.70;14.10;;;;;9.70;102084.00;;;;5001075;28;20587;-73
2021/12/14 13:46:34;;;;;;;29.07;13.90;;;;;9.80;102080.00;;;;5003970;28;20237;-73
2021/12/14 13:49:20;;;;;;;28.30;13.97;;;;;9.80;102084.00;;;;5000009;28;20246;-74
2021/12/14 13:52:09;;;;;;;29.43;13.63;;;;;9.80;102081.00;;;;5002055;28;20218;-74
2021/12/14 13:55:20;;;;;;;27.07;13.17;;;;;9.90;102080.00;;;;5004794;28;20247;-72
2021/12/14 13:58:10;;;;;;;27.33;13.43;;;;;9.70;102085.00;;;;4985674;28;20252;-69
2021/12/14 14:01:00;;;;;;;28.10;12.87;;;;;9.80;102083.00;;;;5008392;28;21858;-72
2021/12/14 14:03:50;;;;;;;29.60;14.60;;;;;9.90;102085.00;;;;4988354;28;20232;-73
2021/12/14 14:06:38;;;;;;;28.43;13.33;;;;;9.60;102085.00;;;;5019763;28;20579;-73
2021/12/14 14:09:28;;;;;;;26.63;13.10;;;;;9.70;102089.00;;;;5013972;28;20243;-75
2021/12/14 14:12:17;;;;;;;28.37;14.17;;;;;9.80;102098.00;;;;4986992;28;20240;-73
2021/12/14 14:15:14;;;;;;;28.40;13.87;;;;;9.60;102098.00;;;;5002950;28;20235;-71
2021/12/14 14:18:04;;;;;;;32.47;15.10;;;;;9.60;102098.00;;;;5003147;28;20781;-75
2021/12/14 14:20:52;;;;;;;30.67;13.80;;;;;9.60;102087.00;;;;5004325;28;20230;-71
2021/12/14 14:23:42;;;;;;;29.87;13.53;;;;;9.80;102077.00;;;;5000129;28;21146;-74
2021/12/14 14:26:38;;;;;;;29.67;13.60;;;;;9.70;102103.00;;;;5005105;28;20244;-74
2021/12/14 14:29:26;;;;;;;28.40;14.07;;;;;9.60;102098.00;;;;5028373;28;20223;-73